Terminal Aerodrome Forecast
Issued by NWS Sioux Falls, SD

Home | Current Version | Previous Version | Text Only | Print | Product List | Glossary On
Versions: 1 2 3 4 5 6 7 8 9 10 11 12 13 14
000
FTUS43 KFSD 291136
TAFSUX
TAF
KSUX 291136Z 2912/3012 08005KT P6SM BKN250
     FM291600 09007KT P6SM VCTS BKN070CB
     FM292100 12009KT P6SM -SHRA VCTS BKN060CB
     FM300000 10006KT P6SM SHRA VCTS BKN050CB
     FM300600 36005KT P6SM BKN050=

USA.gov is the U.S. government's official web portal to all federal, state and local government web resources and services.